Time;durP1;ratioP1;P1;durP2;ratioP2;P2;SDS_P1;SDS_P2;PMS_P1;PMS_P2;Temp;Humidity;BMP_temperature;BMP_pressure;BME280_temperature;BME280_humidity;BME280_pressure;Samples;Min_cycle;Max_cycle;Signal;HPM_P1;HPM_P2
2023/07/12 00:04:44;;;;;;;2.55;0.90;;;23.50;90.30;;;;;;10388989;28;20025;-67
2023/07/12 00:09:45;;;;;;;1.58;0.98;;;23.40;90.30;;;;;;10383257;28;20038;-67
2023/07/12 00:14:46;;;;;;;1.58;0.90;;;23.40;90.40;;;;;;10389893;28;20187;-67
2023/07/12 00:19:47;;;;;;;1.30;0.85;;;23.40;90.40;;;;;;10389180;28;20026;-67
2023/07/12 00:24:47;;;;;;;2.20;1.00;;;23.40;90.40;;;;;;10391684;28;20559;-67
2023/07/12 00:29:48;;;;;;;1.73;0.88;;;23.30;90.40;;;;;;10379435;28;20096;-66
2023/07/12 00:34:49;;;;;;;1.83;0.90;;;23.30;90.50;;;;;;10390955;28;20021;-67
2023/07/12 00:39:49;;;;;;;1.90;0.90;;;23.30;90.50;;;;;;10383380;28;20017;-67
2023/07/12 00:44:55;;;;;;;1.00;0.80;;;23.20;90.50;;;;;;10374540;28;20544;-67
2023/07/12 00:49:55;;;;;;;0.90;0.73;;;23.20;90.50;;;;;;10392114;28;20021;-67
2023/07/12 00:55:01;;;;;;;2.88;0.90;;;23.20;90.50;;;;;;10385177;28;20509;-67
2023/07/12 01:00:10;;;;;;;1.52;0.80;;;23.20;90.60;;;;;;10383479;28;20039;-67
2023/07/12 01:05:13;;;;;;;2.17;1.05;;;23.10;90.60;;;;;;10383091;28;20150;-66
2023/07/12 01:10:14;;;;;;;1.95;1.00;;;23.10;90.60;;;;;;10388845;28;20017;-67
2023/07/12 01:15:14;;;;;;;1.20;0.90;;;23.10;90.60;;;;;;10375325;28;20037;-67
2023/07/12 01:20:22;;;;;;;1.40;1.10;;;23.10;90.60;;;;;;10381926;28;20096;-66
2023/07/12 01:26:12;;;;;;;2.15;1.15;;;23.00;90.60;;;;;;10391765;28;20392;-67
2023/07/12 01:31:13;;;;;;;2.40;0.90;;;23.00;90.60;;;;;;10382903;28;20037;-67
2023/07/12 01:36:14;;;;;;;1.50;0.90;;;23.00;90.60;;;;;;10392520;28;20017;-67
2023/07/12 01:41:14;;;;;;;1.17;0.93;;;23.00;90.60;;;;;;10386571;28;20021;-67
2023/07/12 01:46:21;;;;;;;1.40;0.70;;;22.90;90.60;;;;;;10382374;28;20679;-66
2023/07/12 01:51:21;;;;;;;1.60;0.80;;;22.90;90.60;;;;;;10387509;28;20022;-67
2023/07/12 01:56:22;;;;;;;2.20;0.98;;;22.90;90.60;;;;;;10365910;28;20137;-67
2023/07/12 02:01:23;;;;;;;3.78;1.00;;;22.90;90.60;;;;;;10391147;28;20105;-66
2023/07/12 02:06:23;;;;;;;1.50;1.00;;;22.80;90.60;;;;;;10392895;28;20025;-66
2023/07/12 02:11:24;;;;;;;2.13;0.80;;;22.80;90.70;;;;;;10387512;28;20076;-67
2023/07/12 02:16:25;;;;;;;2.63;1.00;;;22.80;90.60;;;;;;10397060;28;20431;-67
2023/07/12 02:21:26;;;;;;;1.42;0.93;;;22.80;90.70;;;;;;10394905;28;20509;-67
2023/07/12 02:26:31;;;;;;;2.33;1.00;;;22.70;90.70;;;;;;10399753;28;20030;-66
2023/07/12 02:31:32;;;;;;;1.33;1.05;;;22.70;90.70;;;;;;10379713;28;20498;-67
2023/07/12 02:36:32;;;;;;;1.58;1.00;;;22.70;90.70;;;;;;10387159;28;20021;-67
2023/07/12 02:41:36;;;;;;;2.08;0.75;;;22.60;90.70;;;;;;10395769;28;20029;-67
2023/07/12 02:46:36;;;;;;;1.52;1.00;;;22.60;90.70;;;;;;10382650;28;20502;-67
2023/07/12 02:51:37;;;;;;;4.65;1.25;;;22.60;90.70;;;;;;10373433;28;20491;-66
2023/07/12 02:56:38;;;;;;;2.15;1.02;;;22.50;90.70;;;;;;10379727;28;20018;-67
2023/07/12 03:01:38;;;;;;;3.85;1.20;;;22.50;90.70;;;;;;10384935;28;20029;-67
2023/07/12 03:06:39;;;;;;;3.55;1.13;;;22.50;90.70;;;;;;10383227;28;20406;-67
2023/07/12 03:11:40;;;;;;;2.67;1.10;;;22.50;90.70;;;;;;10380876;28;20026;-66
2023/07/12 03:16:40;;;;;;;2.67;1.30;;;22.30;90.70;;;;;;10377537;28;20113;-67
2023/07/12 03:21:42;;;;;;;1.65;1.00;;;22.40;90.70;;;;;;10386336;28;20513;-67
2023/07/12 03:26:42;;;;;;;2.88;1.63;;;22.40;90.70;;;;;;10387289;28;20049;-66
2023/07/12 03:31:43;;;;;;;2.80;1.10;;;22.30;90.70;;;;;;10377057;28;20107;-67
2023/07/12 03:36:43;;;;;;;3.03;1.30;;;22.30;90.70;;;;;;10383154;28;20153;-67
2023/07/12 03:41:44;;;;;;;2.75;1.40;;;22.30;90.80;;;;;;10374767;28;20014;-67
2023/07/12 03:46:45;;;;;;;4.18;1.20;;;22.30;90.80;;;;;;10379190;28;20030;-66
2023/07/12 03:51:45;;;;;;;2.10;1.10;;;22.20;90.80;;;;;;10379215;28;20414;-67
2023/07/12 03:56:46;;;;;;;3.60;1.08;;;22.20;90.80;;;;;;10382009;28;20017;-67
2023/07/12 04:01:46;;;;;;;3.92;1.02;;;22.20;90.70;;;;;;10384270;28;20072;-67
2023/07/12 04:06:47;;;;;;;3.28;1.10;;;22.20;90.70;;;;;;10382650;28;20101;-67
2023/07/12 04:11:51;;;;;;;4.85;1.50;;;22.10;90.70;;;;;;10384896;28;20026;-67
2023/07/12 04:16:52;;;;;;;1.88;0.93;;;22.10;90.70;;;;;;10371371;28;20026;-67
2023/07/12 04:21:52;;;;;;;3.72;1.45;;;22.10;90.70;;;;;;10382693;28;20014;-66
2023/07/12 04:26:53;;;;;;;2.05;1.10;;;22.10;90.70;;;;;;10384914;28;20022;-66
2023/07/12 04:31:53;;;;;;;3.80;1.50;;;22.00;90.70;;;;;;10379672;28;20089;-66
2023/07/12 04:36:54;;;;;;;2.65;1.35;;;22.00;90.70;;;;;;10383022;28;20031;-66
2023/07/12 04:41:55;;;;;;;4.53;1.30;;;22.00;90.70;;;;;;10380098;28;20025;-66
2023/07/12 04:46:55;;;;;;;3.05;1.30;;;22.00;90.70;;;;;;10381176;28;20040;-66
2023/07/12 04:51:57;;;;;;;1.95;1.15;;;22.00;90.70;;;;;;10381286;28;20072;-67
2023/07/12 04:56:57;;;;;;;5.13;1.52;;;22.00;90.70;;;;;;10376631;28;20018;-67
2023/07/12 05:01:58;;;;;;;4.95;1.42;;;21.90;90.70;;;;;;10384077;28;20493;-66
2023/07/12 05:06:58;;;;;;;2.17;1.20;;;21.90;90.70;;;;;;10384705;28;20034;-67
2023/07/12 05:11:59;;;;;;;2.40;1.33;;;22.00;90.60;;;;;;10374838;28;20599;-67
2023/07/12 05:17:00;;;;;;;3.17;1.50;;;21.90;90.60;;;;;;10380506;28;20036;-67
2023/07/12 05:22:00;;;;;;;5.22;1.50;;;21.90;90.70;;;;;;10387522;28;20036;-67
2023/07/12 05:27:01;;;;;;;2.90;1.60;;;21.90;90.70;;;;;;10385102;28;20490;-66
2023/07/12 05:32:01;;;;;;;3.63;1.67;;;21.90;90.70;;;;;;10382461;28;20197;-67
2023/07/12 05:37:03;;;;;;;3.78;1.50;;;21.90;90.60;;;;;;10383855;28;20527;-67
2023/07/12 05:42:04;;;;;;;3.13;1.40;;;21.90;90.60;;;;;;10387596;28;20045;-67
2023/07/12 05:47:05;;;;;;;3.53;1.70;;;21.90;90.50;;;;;;10386086;28;20478;-67
2023/07/12 05:52:06;;;;;;;5.43;2.00;;;21.90;90.50;;;;;;10394739;28;20028;-67
2023/07/12 05:57:07;;;;;;;4.63;2.15;;;21.90;90.60;;;;;;10392849;28;20319;-67
2023/07/12 06:02:13;;;;;;;3.55;1.77;;;21.80;90.60;;;;;;10365074;28;20031;-67
2023/07/12 06:07:13;;;;;;;3.50;1.50;;;21.80;90.70;;;;;;10383780;28;20267;-67
2023/07/12 06:12:14;;;;;;;1.98;1.65;;;21.80;90.60;;;;;;10393464;28;20057;-67
2023/07/12 06:17:14;;;;;;;4.43;2.00;;;21.80;90.60;;;;;;10387754;28;20030;-67
2023/07/12 06:22:15;;;;;;;3.53;2.25;;;21.80;90.60;;;;;;10389469;28;20026;-67
2023/07/12 06:27:16;;;;;;;5.93;2.03;;;21.70;90.60;;;;;;10389107;28;20512;-67
2023/07/12 06:32:17;;;;;;;2.58;1.90;;;21.80;90.60;;;;;;10385256;28;20356;-67
2023/07/12 06:37:17;;;;;;;5.10;1.92;;;21.80;90.50;;;;;;10391461;28;20022;-67
2023/07/12 06:42:19;;;;;;;6.68;2.25;;;21.80;90.50;;;;;;10388084;28;20021;-67
2023/07/12 06:47:19;;;;;;;4.13;2.22;;;21.80;90.50;;;;;;10386695;28;20018;-66
2023/07/12 06:52:20;;;;;;;3.47;2.08;;;21.80;90.50;;;;;;10381173;28;20410;-67
2023/07/12 06:57:21;;;;;;;5.07;2.30;;;21.80;90.50;;;;;;10385108;28;20034;-67
2023/07/12 07:02:22;;;;;;;2.10;1.85;;;21.80;90.50;;;;;;10378602;28;20023;-67
2023/07/12 07:07:23;;;;;;;3.67;2.05;;;21.80;90.50;;;;;;10391035;28;20033;-68
2023/07/12 07:12:23;;;;;;;6.63;2.33;;;21.80;90.50;;;;;;10383630;28;20026;-68
2023/07/12 07:17:24;;;;;;;3.60;2.03;;;21.90;90.50;;;;;;10385918;28;20498;-68
2023/07/12 07:22:24;;;;;;;3.15;2.10;;;21.80;90.50;;;;;;10385529;28;20022;-68
2023/07/12 07:27:25;;;;;;;3.42;2.30;;;21.80;90.40;;;;;;10386882;28;20021;-70
2023/07/12 07:32:26;;;;;;;5.95;2.80;;;21.80;90.40;;;;;;10391338;28;20022;-69
2023/07/12 07:37:26;;;;;;;8.77;4.60;;;21.80;90.50;;;;;;10383294;28;20529;-71
2023/07/12 07:42:27;;;;;;;10.02;4.55;;;21.50;90.90;;;;;;10384399;28;20448;-71
2023/07/12 07:47:27;;;;;;;14.93;5.10;;;21.30;91.30;;;;;;10389072;28;20065;-73
2023/07/12 07:52:28;;;;;;;10.05;4.88;;;21.30;91.60;;;;;;10369432;28;20034;-72
2023/07/12 07:57:29;;;;;;;8.88;4.60;;;21.20;92.10;;;;;;10366776;28;20375;-71
2023/07/12 08:02:29;;;;;;;10.05;4.93;;;21.10;92.00;;;;;;10372024;28;20696;-71
2023/07/12 08:07:40;;;;;;;14.48;5.25;;;21.10;92.10;;;;;;10362137;28;20030;-72
2023/07/12 08:12:41;;;;;;;8.50;4.18;;;21.20;92.30;;;;;;10369695;28;20555;-72
2023/07/12 08:17:43;;;;;;;6.72;3.95;;;21.20;92.10;;;;;;10366233;28;20029;-72
2023/07/12 08:22:44;;;;;;;6.25;3.60;;;21.00;92.20;;;;;;10366033;28;20030;-71
2023/07/12 08:27:44;;;;;;;10.57;4.50;;;20.80;92.30;;;;;;10354651;28;20026;-75
2023/07/12 08:32:45;;;;;;;8.20;4.22;;;20.70;92.60;;;;;;10374093;28;20041;-71
2023/07/12 08:37:45;;;;;;;11.25;3.90;;;20.60;92.80;;;;;;10369812;28;20084;-69
2023/07/12 08:42:46;;;;;;;8.93;3.03;;;20.70;92.80;;;;;;10378633;28;20032;-68
2023/07/12 08:47:49;;;;;;;7.30;3.00;;;20.80;92.80;;;;;;10373378;28;20040;-67
2023/07/12 08:52:51;;;;;;;6.90;3.20;;;20.90;92.80;;;;;;10370096;28;20026;-67
2023/07/12 08:58:02;;;;;;;8.65;3.78;;;21.00;92.70;;;;;;10371096;28;20033;-66
2023/07/12 09:03:03;;;;;;;7.15;3.10;;;21.10;92.70;;;;;;10373919;28;20025;-66
2023/07/12 09:08:31;;;;;;;5.82;2.97;;;21.20;92.50;;;;;;10368358;28;20032;-68
2023/07/12 09:13:37;;;;;;;10.00;3.38;;;21.30;92.40;;;;;;10396184;28;20070;-65
2023/07/12 09:18:39;;;;;;;2.50;2.30;;;21.40;92.30;;;;;;10359154;28;20501;-66
2023/07/12 09:23:42;;;;;;;6.75;3.15;;;21.50;92.20;;;;;;10358030;28;20032;-65
2023/07/12 09:28:42;;;;;;;6.20;2.90;;;21.50;92.20;;;;;;10357915;28;20548;-64
2023/07/12 09:33:51;;;;;;;4.82;2.80;;;21.50;92.20;;;;;;10369776;28;20030;-64
2023/07/12 09:38:51;;;;;;;5.97;3.13;;;21.50;92.20;;;;;;10361725;28;20108;-65
2023/07/12 09:44:00;;;;;;;6.10;3.20;;;21.50;92.30;;;;;;10365745;28;20033;-65
2023/07/12 09:49:40;;;;;;;4.28;2.35;;;21.60;92.30;;;;;;10364186;28;20116;-66
2023/07/12 09:54:50;;;;;;;4.78;2.80;;;21.60;92.30;;;;;;10368762;28;20045;-68
2023/07/12 10:00:29;;;;;;;7.60;2.95;;;21.60;92.10;;;;;;10365184;28;20560;-72
2023/07/12 10:05:30;;;;;;;5.20;2.50;;;21.70;92.10;;;;;;10362511;28;20048;-72
2023/07/12 10:10:55;;;;;;;4.40;2.17;;;21.60;92.20;;;;;;10370319;28;20489;-72
2023/07/12 10:15:59;;;;;;;4.97;2.50;;;21.60;92.10;;;;;;10359558;28;20027;-72
2023/07/12 10:21:00;;;;;;;3.60;1.98;;;21.70;91.80;;;;;;10382924;28;20033;-71
2023/07/12 10:26:04;;;;;;;3.15;1.85;;;21.70;91.60;;;;;;10379331;28;20034;-72
2023/07/12 10:31:28;;;;;;;4.10;1.27;;;21.80;91.40;;;;;;10376743;28;20336;-72
2023/07/12 10:36:30;;;;;;;3.47;1.25;;;21.70;91.10;;;;;;10373863;28;20190;-71
2023/07/12 10:41:35;;;;;;;2.80;1.40;;;21.70;91.20;;;;;;10378407;28;20216;-72
2023/07/12 10:46:41;;;;;;;3.90;1.80;;;21.70;91.20;;;;;;10376164;28;20068;-72
2023/07/12 10:51:45;;;;;;;4.47;1.70;;;21.90;91.10;;;;;;10376874;28;20436;-71
2023/07/12 10:56:54;;;;;;;4.50;1.75;;;22.10;90.80;;;;;;10377092;28;20030;-73
2023/07/12 11:01:55;;;;;;;4.10;1.67;;;22.10;90.60;;;;;;10370567;28;20053;-72
2023/07/12 11:07:04;;;;;;;2.70;1.55;;;22.10;90.60;;;;;;10380335;28;20037;-74
2023/07/12 11:12:06;;;;;;;2.95;1.70;;;22.20;90.40;;;;;;10369760;28;20030;-74
2023/07/12 11:17:07;;;;;;;1.70;1.33;;;22.10;90.10;;;;;;10402140;28;20018;-71
2023/07/12 11:22:17;;;;;;;2.60;1.20;;;22.20;90.10;;;;;;10387114;28;20401;-71
2023/07/12 11:27:46;;;;;;;5.28;1.60;;;22.30;89.40;;;;;;10379069;28;20025;-74
2023/07/12 11:32:49;;;;;;;2.20;1.42;;;22.40;87.90;;;;;;10363854;28;20399;-74
2023/07/12 11:37:56;;;;;;;3.05;1.40;;;22.60;88.60;;;;;;10378598;28;20117;-72
2023/07/12 11:43:27;;;;;;;3.90;1.35;;;22.90;88.10;;;;;;10374619;28;20306;-76
2023/07/12 11:48:33;;;;;;;4.53;1.60;;;23.00;87.50;;;;;;10412594;28;20030;-72
2023/07/12 11:53:34;;;;;;;2.45;1.48;;;23.00;87.40;;;;;;10380850;28;20034;-71
2023/07/12 11:58:35;;;;;;;3.42;1.77;;;23.10;87.40;;;;;;10374007;28;20053;-72
2023/07/12 12:03:36;;;;;;;3.60;1.30;;;23.20;86.60;;;;;;10383216;28;20512;-73
2023/07/12 12:08:39;;;;;;;2.35;1.30;;;23.20;86.10;;;;;;10368709;28;20025;-70
2023/07/12 12:13:51;;;;;;;3.60;1.27;;;23.20;85.30;;;;;;10371372;28;20032;-70
2023/07/12 12:18:59;;;;;;;1.58;1.05;;;23.20;84.20;;;;;;10382093;28;20036;-70
2023/07/12 12:24:15;;;;;;;1.10;1.00;;;23.20;83.70;;;;;;10379336;28;20060;-70
2023/07/12 12:29:23;;;;;;;3.17;1.23;;;23.30;83.30;;;;;;10380016;28;20095;-69
2023/07/12 12:34:35;;;;;;;7.03;1.30;;;23.40;83.30;;;;;;10371067;28;20021;-66
2023/07/12 12:39:36;;;;;;;1.73;1.20;;;23.40;83.50;;;;;;10373881;28;20033;-66
2023/07/12 12:44:37;;;;;;;1.90;1.15;;;23.40;84.00;;;;;;10376874;28;20086;-65
2023/07/12 12:49:38;;;;;;;2.03;1.23;;;23.40;84.10;;;;;;10379501;28;20344;-66
2023/07/12 12:54:38;;;;;;;2.78;1.13;;;23.40;84.20;;;;;;10375178;28;20079;-66
2023/07/12 12:59:39;;;;;;;3.22;1.15;;;23.40;84.30;;;;;;10384117;28;20022;-66
2023/07/12 13:04:40;;;;;;;1.70;1.20;;;23.50;84.40;;;;;;10377905;28;20414;-66
2023/07/12 13:09:40;;;;;;;2.88;1.40;;;23.50;84.30;;;;;;10379606;28;20083;-66
2023/07/12 13:14:41;;;;;;;3.35;1.05;;;23.60;84.40;;;;;;10379315;28;20456;-66
2023/07/12 13:19:43;;;;;;;2.33;0.90;;;23.60;84.40;;;;;;10388312;28;20022;-66
2023/07/12 13:24:44;;;;;;;2.33;1.00;;;23.70;84.30;;;;;;10384384;28;20018;-66
2023/07/12 13:29:46;;;;;;;2.22;1.33;;;23.80;84.20;;;;;;10368546;28;20026;-66
2023/07/12 13:34:49;;;;;;;1.63;1.17;;;23.80;84.20;;;;;;10380595;28;20029;-68
2023/07/12 13:39:51;;;;;;;2.30;1.02;;;24.00;84.20;;;;;;10376542;28;20056;-67
2023/07/12 13:44:51;;;;;;;1.90;1.30;;;24.00;84.20;;;;;;10385138;28;20108;-68
2023/07/12 13:49:54;;;;;;;1.90;1.23;;;24.10;84.20;;;;;;10373342;28;20108;-67
2023/07/12 13:54:54;;;;;;;3.70;1.10;;;24.20;84.20;;;;;;10377737;28;20425;-66
2023/07/12 13:59:55;;;;;;;3.63;1.35;;;24.20;84.20;;;;;;10386114;28;20025;-66
2023/07/12 14:04:59;;;;;;;3.03;1.15;;;24.20;84.10;;;;;;10379068;28;20037;-66
2023/07/12 14:10:00;;;;;;;3.05;1.25;;;24.40;84.00;;;;;;10383166;28;20482;-65
2023/07/12 14:15:00;;;;;;;3.63;1.30;;;24.40;83.80;;;;;;10383949;28;20037;-66
2023/07/12 14:20:01;;;;;;;2.47;1.02;;;24.40;84.00;;;;;;10381064;28;20014;-66
2023/07/12 14:25:02;;;;;;;2.90;1.20;;;24.50;83.80;;;;;;10385641;28;20436;-66
2023/07/12 14:30:07;;;;;;;1.63;1.00;;;24.60;83.70;;;;;;10384111;28;20032;-66
2023/07/12 14:35:17;;;;;;;2.72;0.93;;;24.70;83.50;;;;;;10380348;28;20026;-66
2023/07/12 14:40:19;;;;;;;2.88;1.00;;;24.80;83.20;;;;;;10382219;28;20024;-66
2023/07/12 14:45:22;;;;;;;2.50;1.27;;;24.90;83.10;;;;;;10383486;28;20025;-66
2023/07/12 14:50:25;;;;;;;1.50;0.82;;;25.00;82.90;;;;;;10377331;28;20052;-67
2023/07/12 14:55:26;;;;;;;1.85;1.10;;;25.20;82.60;;;;;;10386475;28;20026;-66
2023/07/12 15:00:27;;;;;;;2.15;1.10;;;25.30;82.70;;;;;;10376328;28;20029;-66
2023/07/12 15:05:28;;;;;;;2.47;1.00;;;25.30;82.30;;;;;;10376702;28;20025;-66
2023/07/12 15:10:30;;;;;;;1.77;0.93;;;25.40;82.20;;;;;;10380232;28;20026;-66
2023/07/12 15:15:32;;;;;;;1.65;0.90;;;25.60;82.20;;;;;;10383122;28;20034;-66
2023/07/12 15:20:33;;;;;;;1.27;0.93;;;25.60;82.10;;;;;;10381039;28;20494;-66
2023/07/12 15:25:33;;;;;;;2.30;1.00;;;25.70;81.90;;;;;;10383691;28;20026;-66
2023/07/12 15:30:34;;;;;;;3.72;1.15;;;25.80;81.80;;;;;;10376046;28;20029;-66
2023/07/12 15:35:35;;;;;;;1.08;0.75;;;25.80;81.50;;;;;;10378814;28;20022;-69
2023/07/12 15:41:01;;;;;;;1.45;1.00;;;25.90;81.40;;;;;;10374400;28;20938;-67
2023/07/12 15:46:05;;;;;;;4.40;1.33;;;26.00;81.00;;;;;;10366267;28;20158;-67
2023/07/12 15:51:16;;;;;;;2.33;1.30;;;26.00;81.10;;;;;;10380262;28;20041;-70
2023/07/12 15:56:25;;;;;;;1.55;1.23;;;26.00;79.70;;;;;;10379032;28;20022;-69
2023/07/12 16:01:28;;;;;;;4.93;1.50;;;25.80;78.80;;;;;;10378930;28;20027;-70
2023/07/12 16:06:29;;;;;;;3.05;1.42;;;25.40;77.50;;;;;;10380855;28;20060;-70
2023/07/12 16:11:41;;;;;;;2.75;1.23;;;25.10;77.60;;;;;;10378778;28;20220;-67
2023/07/12 16:16:42;;;;;;;2.47;1.20;;;24.90;76.40;;;;;;10378546;28;20116;-69
2023/07/12 16:21:42;;;;;;;1.25;0.93;;;24.50;77.30;;;;;;10373695;28;20509;-69
2023/07/12 16:26:44;;;;;;;1.90;1.20;;;24.40;77.50;;;;;;10376518;28;20382;-68
2023/07/12 16:31:50;;;;;;;1.75;0.85;;;24.20;77.20;;;;;;10379848;28;20037;-70
2023/07/12 16:36:54;;;;;;;2.10;0.90;;;24.10;76.30;;;;;;10381005;28;20068;-70
2023/07/12 16:41:55;;;;;;;3.42;0.90;;;24.00;76.90;;;;;;10381116;28;20057;-68
2023/07/12 16:46:57;;;;;;;1.52;0.80;;;24.00;76.70;;;;;;10375137;28;20118;-68
2023/07/12 16:52:03;;;;;;;1.05;0.70;;;23.90;76.60;;;;;;10383898;28;20140;-69
2023/07/12 16:57:04;;;;;;;1.98;0.88;;;23.80;76.50;;;;;;10374670;28;20098;-68
2023/07/12 17:02:19;;;;;;;3.25;1.08;;;23.70;76.60;;;;;;10375193;28;20053;-70
2023/07/12 17:07:19;;;;;;;6.50;1.10;;;23.60;74.30;;;;;;10372423;28;20133;-70
2023/07/12 17:12:23;;;;;;;1.90;0.90;;;23.60;76.20;;;;;;10381778;28;20105;-69
2023/07/12 17:17:24;;;;;;;2.17;0.85;;;23.40;76.10;;;;;;10384105;28;20033;-69
2023/07/12 17:22:25;;;;;;;3.50;1.02;;;23.30;76.30;;;;;;10382552;28;20265;-69
2023/07/12 17:27:28;;;;;;;0.90;0.80;;;23.20;75.90;;;;;;10379605;28;20031;-69
2023/07/12 17:32:33;;;;;;;1.00;0.90;;;23.20;75.90;;;;;;10377640;28;20367;-67
2023/07/12 17:37:33;;;;;;;3.50;1.17;;;23.20;75.70;;;;;;10381253;28;20037;-71
2023/07/12 17:42:34;;;;;;;4.22;0.98;;;23.20;75.80;;;;;;10378517;28;20017;-70
2023/07/12 17:47:35;;;;;;;1.67;0.85;;;23.10;75.80;;;;;;10384051;28;20037;-71
2023/07/12 17:52:35;;;;;;;1.05;0.90;;;23.00;76.10;;;;;;10412488;28;20391;-71
2023/07/12 17:57:36;;;;;;;1.20;0.98;;;22.90;76.00;;;;;;10386990;28;20120;-71
2023/07/12 18:02:37;;;;;;;2.65;1.20;;;22.90;76.00;;;;;;10379285;28;20044;-71
2023/07/12 18:07:38;;;;;;;1.40;0.90;;;22.80;75.90;;;;;;10367227;28;20029;-68
2023/07/12 18:12:39;;;;;;;4.43;1.10;;;22.70;76.20;;;;;;10366126;28;20113;-68
2023/07/12 18:17:39;;;;;;;1.27;1.05;;;22.60;76.30;;;;;;10362068;28;20042;-67
2023/07/12 18:22:40;;;;;;;4.80;1.27;;;22.60;76.30;;;;;;10360059;28;20077;-68
2023/07/12 18:27:42;;;;;;;5.00;1.25;;;22.60;76.60;;;;;;10362757;28;20406;-68
2023/07/12 18:32:42;;;;;;;2.20;1.35;;;22.50;76.90;;;;;;10364965;28;20339;-68
2023/07/12 18:37:43;;;;;;;4.57;1.30;;;22.40;77.10;;;;;;10367202;28;20080;-68
2023/07/12 18:42:44;;;;;;;4.78;1.20;;;22.30;77.30;;;;;;10361252;28;20037;-68
2023/07/12 18:47:48;;;;;;;2.35;1.20;;;22.30;77.40;;;;;;10371939;28;20029;-68
2023/07/12 18:52:50;;;;;;;2.08;0.88;;;22.30;77.60;;;;;;10375922;28;20087;-68
2023/07/12 18:57:52;;;;;;;4.82;1.33;;;22.20;77.90;;;;;;10367170;28;20033;-68
2023/07/12 19:02:52;;;;;;;2.72;1.15;;;22.20;78.20;;;;;;10374079;28;20402;-67
2023/07/12 19:07:53;;;;;;;3.50;1.27;;;22.10;78.20;;;;;;10372501;28;20030;-69
2023/07/12 19:12:54;;;;;;;4.75;1.10;;;22.10;78.20;;;;;;10353612;28;20029;-70
2023/07/12 19:17:54;;;;;;;4.10;1.42;;;22.30;78.30;;;;;;10397693;28;20034;-69
2023/07/12 19:22:55;;;;;;;3.75;0.95;;;22.40;78.10;;;;;;10369878;28;20028;-69
2023/07/12 19:27:56;;;;;;;4.50;1.25;;;22.50;78.10;;;;;;10370423;28;20032;-69
2023/07/12 19:32:57;;;;;;;1.27;1.00;;;22.60;78.10;;;;;;10367891;28;20377;-69
2023/07/12 19:38:00;;;;;;;3.58;1.05;;;22.60;78.00;;;;;;10365732;28;20029;-69
2023/07/12 19:43:01;;;;;;;2.17;0.90;;;22.70;78.10;;;;;;10372902;28;20040;-69
2023/07/12 19:48:04;;;;;;;2.17;0.93;;;22.70;78.20;;;;;;10374064;28;20486;-71
2023/07/12 19:53:22;;;;;;;2.00;1.00;;;22.80;78.30;;;;;;10373986;28;20240;-70
2023/07/12 19:58:23;;;;;;;1.48;1.00;;;22.80;78.40;;;;;;10377401;28;20025;-70
2023/07/12 20:03:24;;;;;;;2.67;1.42;;;22.80;78.50;;;;;;10374851;28;20018;-69
2023/07/12 20:08:24;;;;;;;3.38;1.40;;;22.80;78.60;;;;;;10369558;28;20032;-68
2023/07/12 20:13:25;;;;;;;4.03;1.35;;;22.80;78.70;;;;;;10370987;28;20014;-68
2023/07/12 20:18:26;;;;;;;3.75;1.10;;;22.80;78.80;;;;;;10370463;28;20025;-69
2023/07/12 20:23:27;;;;;;;1.95;0.90;;;22.80;78.80;;;;;;10371290;28;20041;-68
2023/07/12 20:28:29;;;;;;;3.05;1.20;;;22.80;78.90;;;;;;10375176;28;20010;-69
2023/07/12 20:33:30;;;;;;;1.98;1.05;;;22.70;78.90;;;;;;10378551;28;20029;-68
2023/07/12 20:38:30;;;;;;;1.73;0.90;;;22.70;79.00;;;;;;10370903;28;20072;-68
2023/07/12 20:43:38;;;;;;;2.42;1.15;;;22.70;79.00;;;;;;10375067;28;20028;-68
2023/07/12 20:48:39;;;;;;;3.80;1.30;;;22.70;79.00;;;;;;10373911;28;20296;-68
2023/07/12 20:53:43;;;;;;;3.35;1.00;;;22.70;79.00;;;;;;10371399;28;20027;-68
2023/07/12 20:58:46;;;;;;;3.65;1.45;;;22.70;79.10;;;;;;10369775;28;20033;-68
2023/07/12 21:03:48;;;;;;;1.95;0.90;;;22.60;79.10;;;;;;10371528;28;20095;-68
2023/07/12 21:08:49;;;;;;;1.95;1.08;;;22.60;79.20;;;;;;10369136;28;20367;-66
2023/07/12 21:13:50;;;;;;;3.45;1.38;;;22.60;79.20;;;;;;10369410;28;20482;-66
2023/07/12 21:18:51;;;;;;;3.05;1.17;;;22.50;79.20;;;;;;10368811;28;20382;-66
2023/07/12 21:23:52;;;;;;;2.80;1.10;;;22.50;79.20;;;;;;10365364;28;20029;-66
2023/07/12 21:28:52;;;;;;;2.67;1.08;;;22.50;79.30;;;;;;10355157;28;20050;-66
2023/07/12 21:33:54;;;;;;;7.93;1.38;;;22.50;79.30;;;;;;10364075;28;20029;-66
2023/07/12 21:38:55;;;;;;;2.78;1.33;;;22.40;79.30;;;;;;10370159;28;20025;-66
2023/07/12 21:43:56;;;;;;;3.53;1.10;;;22.40;79.30;;;;;;10378563;28;20515;-66
2023/07/12 21:48:56;;;;;;;1.45;0.90;;;22.40;79.40;;;;;;10378024;28;20477;-66
2023/07/12 21:53:58;;;;;;;2.40;0.98;;;22.40;79.40;;;;;;10379864;28;20084;-66
2023/07/12 21:58:59;;;;;;;1.48;1.00;;;22.30;79.40;;;;;;10369824;28;20478;-66
2023/07/12 22:04:00;;;;;;;1.48;1.05;;;22.30;79.40;;;;;;10374298;28;20025;-66
2023/07/12 22:09:07;;;;;;;2.72;1.10;;;22.30;79.40;;;;;;10370726;28;20502;-66
2023/07/12 22:14:08;;;;;;;1.25;0.90;;;22.20;79.30;;;;;;10366751;28;20033;-67
2023/07/12 22:19:08;;;;;;;2.75;0.95;;;22.20;79.30;;;;;;10383438;28;20042;-66
2023/07/12 22:24:09;;;;;;;1.90;1.00;;;22.20;79.20;;;;;;10382340;28;20105;-66
2023/07/12 22:29:10;;;;;;;1.13;0.77;;;22.10;79.20;;;;;;10377144;28;20419;-66
2023/07/12 22:34:11;;;;;;;5.50;0.95;;;22.10;79.20;;;;;;10380101;28;20032;-66
2023/07/12 22:39:11;;;;;;;3.53;1.17;;;22.10;79.20;;;;;;10390938;28;20087;-66
2023/07/12 22:44:12;;;;;;;2.58;0.90;;;22.00;79.10;;;;;;10387526;28;20108;-67
2023/07/12 22:49:17;;;;;;;1.52;0.88;;;22.00;79.10;;;;;;10381904;28;20021;-66
2023/07/12 22:54:18;;;;;;;2.13;0.80;;;22.00;79.10;;;;;;10383698;28;20021;-66
2023/07/12 22:59:19;;;;;;;4.93;1.10;;;21.90;79.10;;;;;;10382057;28;20101;-66
2023/07/12 23:04:19;;;;;;;3.13;1.15;;;21.90;79.20;;;;;;10386746;28;20044;-67
2023/07/12 23:09:20;;;;;;;2.63;1.08;;;21.90;79.30;;;;;;10383637;28;20039;-66
2023/07/12 23:14:21;;;;;;;3.45;1.10;;;21.90;79.40;;;;;;10361722;28;20255;-66
2023/07/12 23:19:22;;;;;;;5.05;1.40;;;21.80;79.40;;;;;;10391154;28;20017;-66
2023/07/12 23:24:23;;;;;;;2.42;1.20;;;21.80;79.50;;;;;;10380576;28;20097;-66
2023/07/12 23:29:25;;;;;;;4.15;1.40;;;21.80;79.70;;;;;;10384117;28;20097;-66
2023/07/12 23:34:26;;;;;;;1.60;1.10;;;21.80;79.80;;;;;;10388868;28;20018;-66
2023/07/12 23:39:27;;;;;;;3.28;1.38;;;21.80;79.90;;;;;;10391141;28;20022;-66
2023/07/12 23:44:30;;;;;;;3.85;1.08;;;21.70;80.00;;;;;;10379007;28;20022;-66
2023/07/12 23:49:31;;;;;;;2.90;1.02;;;21.70;80.10;;;;;;10391367;28;20079;-66
2023/07/12 23:54:32;;;;;;;4.22;1.20;;;21.70;80.20;;;;;;10390342;28;20582;-66
2023/07/12 23:59:32;;;;;;;4.88;1.55;;;21.70;80.30;;;;;;10375679;28;20022;-66
